sensor_id;sensor_type;location;lat;lon;timestamp;pressure;altitude;pressure_sealevel;temperature;humidity
54666;BME280;40566;50.006;36.180;2023-04-23T00:01:30;99554.09;;;8.45;72.84
54666;BME280;40566;50.006;36.180;2023-04-23T00:06:35;99558.31;;;8.49;72.84
54666;BME280;40566;50.006;36.180;2023-04-23T00:11:36;99560.13;;;8.45;72.93
54666;BME280;40566;50.006;36.180;2023-04-23T00:16:38;99555.72;;;8.49;72.98
54666;BME280;40566;50.006;36.180;2023-04-23T00:21:38;99567.81;;;8.47;73.01
54666;BME280;40566;50.006;36.180;2023-04-23T00:26:39;99564.28;;;8.51;72.90
54666;BME280;40566;50.006;36.180;2023-04-23T00:31:40;99567.75;;;8.50;73.07
54666;BME280;40566;50.006;36.180;2023-04-23T00:36:40;99575.66;;;8.42;73.30
54666;BME280;40566;50.006;36.180;2023-04-23T00:41:41;99580.88;;;8.38;73.42
54666;BME280;40566;50.006;36.180;2023-04-23T00:46:42;99577.44;;;8.37;73.40
54666;BME280;40566;50.006;36.180;2023-04-23T00:51:43;99591.25;;;8.33;73.53
54666;BME280;40566;50.006;36.180;2023-04-23T00:56:43;99585.41;;;8.26;73.60
54666;BME280;40566;50.006;36.180;2023-04-23T01:01:44;99586.31;;;8.24;73.60
54666;BME280;40566;50.006;36.180;2023-04-23T01:06:45;99593.25;;;8.22;73.58
54666;BME280;40566;50.006;36.180;2023-04-23T01:11:50;99581.34;;;8.14;73.74
54666;BME280;40566;50.006;36.180;2023-04-23T01:16:50;99590.88;;;8.09;73.91
54666;BME280;40566;50.006;36.180;2023-04-23T01:21:52;99590.13;;;8.06;73.79
54666;BME280;40566;50.006;36.180;2023-04-23T01:26:53;99597.03;;;8.04;74.04
54666;BME280;40566;50.006;36.180;2023-04-23T01:31:54;99589.31;;;8.04;74.26
54666;BME280;40566;50.006;36.180;2023-04-23T01:36:56;99597.94;;;8.01;74.09
54666;BME280;40566;50.006;36.180;2023-04-23T01:41:58;99598.03;;;7.97;74.23
54666;BME280;40566;50.006;36.180;2023-04-23T01:46:59;99586.22;;;7.86;74.41
54666;BME280;40566;50.006;36.180;2023-04-23T01:52:00;99594.63;;;7.94;74.40
54666;BME280;40566;50.006;36.180;2023-04-23T01:57:01;99607.50;;;7.96;74.49
54666;BME280;40566;50.006;36.180;2023-04-23T02:02:02;99604.81;;;8.01;74.29
54666;BME280;40566;50.006;36.180;2023-04-23T02:07:02;99608.19;;;8.04;74.10
54666;BME280;40566;50.006;36.180;2023-04-23T02:12:03;99597.06;;;8.02;74.12
54666;BME280;40566;50.006;36.180;2023-04-23T02:17:04;99616.63;;;8.11;74.06
54666;BME280;40566;50.006;36.180;2023-04-23T02:22:04;99621.72;;;8.16;74.02
54666;BME280;40566;50.006;36.180;2023-04-23T02:27:05;99627.59;;;8.21;73.80
54666;BME280;40566;50.006;36.180;2023-04-23T02:32:05;99629.25;;;8.23;73.88
54666;BME280;40566;50.006;36.180;2023-04-23T02:37:06;99637.88;;;8.22;73.85
54666;BME280;40566;50.006;36.180;2023-04-23T02:42:07;99636.13;;;8.24;73.77
54666;BME280;40566;50.006;36.180;2023-04-23T02:47:08;99637.03;;;8.22;73.74
54666;BME280;40566;50.006;36.180;2023-04-23T02:52:09;99642.13;;;8.25;73.75
54666;BME280;40566;50.006;36.180;2023-04-23T02:57:09;99644.69;;;8.25;73.64
54666;BME280;40566;50.006;36.180;2023-04-23T03:02:12;99653.19;;;8.30;73.48
54666;BME280;40566;50.006;36.180;2023-04-23T03:07:12;99658.28;;;8.33;73.52
54666;BME280;40566;50.006;36.180;2023-04-23T03:12:13;99665.94;;;8.38;73.59
54666;BME280;40566;50.006;36.180;2023-04-23T03:17:13;99673.56;;;8.44;73.52
54666;BME280;40566;50.006;36.180;2023-04-23T03:22:14;99670.03;;;8.48;73.39
54666;BME280;40566;50.006;36.180;2023-04-23T03:27:15;99676.69;;;8.58;73.18
54666;BME280;40566;50.006;36.180;2023-04-23T03:32:15;99683.50;;;8.61;73.25
54666;BME280;40566;50.006;36.180;2023-04-23T03:37:16;99678.34;;;8.62;73.38
54666;BME280;40566;50.006;36.180;2023-04-23T03:42:17;99684.38;;;8.61;73.32
54666;BME280;40566;50.006;36.180;2023-04-23T03:47:17;99696.41;;;8.61;73.58
54666;BME280;40566;50.006;36.180;2023-04-23T03:52:18;99692.84;;;8.66;73.56
54666;BME280;40566;50.006;36.180;2023-04-23T03:57:19;99684.13;;;8.73;73.51
54666;BME280;40566;50.006;36.180;2023-04-23T04:02:20;99703.78;;;8.79;73.55
54666;BME280;40566;50.006;36.180;2023-04-23T04:07:20;99709.72;;;8.83;73.47
54666;BME280;40566;50.006;36.180;2023-04-23T04:12:21;99707.91;;;8.86;73.41
54666;BME280;40566;50.006;36.180;2023-04-23T04:17:22;99718.06;;;8.94;73.30
54666;BME280;40566;50.006;36.180;2023-04-23T04:22:22;99723.09;;;9.00;73.27
54666;BME280;40566;50.006;36.180;2023-04-23T04:27:23;99722.91;;;9.09;73.14
54666;BME280;40566;50.006;36.180;2023-04-23T04:32:24;99732.91;;;9.23;72.93
54666;BME280;40566;50.006;36.180;2023-04-23T04:37:26;99733.53;;;9.35;72.64
54666;BME280;40566;50.006;36.180;2023-04-23T04:42:27;99734.88;;;9.49;72.22
54666;BME280;40566;50.006;36.180;2023-04-23T04:47:27;99739.78;;;9.62;71.86
54666;BME280;40566;50.006;36.180;2023-04-23T04:52:28;99741.22;;;9.73;71.57
54666;BME280;40566;50.006;36.180;2023-04-23T04:57:29;99744.28;;;9.88;71.27
54666;BME280;40566;50.006;36.180;2023-04-23T05:02:29;99751.94;;;9.92;70.84
54666;BME280;40566;50.006;36.180;2023-04-23T05:07:30;99756.13;;;9.97;70.56
54666;BME280;40566;50.006;36.180;2023-04-23T05:12:30;99770.22;;;10.19;69.91
54666;BME280;40566;50.006;36.180;2023-04-23T05:17:31;99764.88;;;10.58;68.50
54666;BME280;40566;50.006;36.180;2023-04-23T05:22:32;99769.03;;;10.95;67.35
54666;BME280;40566;50.006;36.180;2023-04-23T05:27:33;99762.25;;;11.19;66.79
54666;BME280;40566;50.006;36.180;2023-04-23T05:32:34;99763.53;;;11.36;66.36
54666;BME280;40566;50.006;36.180;2023-04-23T05:37:35;99766.66;;;11.45;66.18
54666;BME280;40566;50.006;36.180;2023-04-23T05:42:36;99780.00;;;11.61;66.21
54666;BME280;40566;50.006;36.180;2023-04-23T05:47:37;99772.78;;;11.71;65.86
54666;BME280;40566;50.006;36.180;2023-04-23T05:52:38;99789.69;;;11.83;65.86
54666;BME280;40566;50.006;36.180;2023-04-23T05:57:38;99796.03;;;12.01;65.48
54666;BME280;40566;50.006;36.180;2023-04-23T06:02:40;99795.19;;;12.25;64.61
54666;BME280;40566;50.006;36.180;2023-04-23T06:07:41;99799.22;;;12.59;64.12
54666;BME280;40566;50.006;36.180;2023-04-23T06:12:42;99807.59;;;12.91;63.40
54666;BME280;40566;50.006;36.180;2023-04-23T06:17:42;99803.97;;;13.19;62.79
54666;BME280;40566;50.006;36.180;2023-04-23T06:22:43;99815.13;;;13.46;61.79
54666;BME280;40566;50.006;36.180;2023-04-23T06:27:44;99806.84;;;13.58;61.63
54666;BME280;40566;50.006;36.180;2023-04-23T06:32:45;99813.06;;;13.76;61.05
54666;BME280;40566;50.006;36.180;2023-04-23T06:37:45;99818.72;;;13.86;60.78
54666;BME280;40566;50.006;36.180;2023-04-23T06:42:46;99820.38;;;13.88;60.54
54666;BME280;40566;50.006;36.180;2023-04-23T06:47:47;99822.03;;;14.12;60.24
54666;BME280;40566;50.006;36.180;2023-04-23T06:52:49;99820.75;;;14.42;59.13
54666;BME280;40566;50.006;36.180;2023-04-23T06:57:49;99824.25;;;14.63;58.20
54666;BME280;40566;50.006;36.180;2023-04-23T07:02:50;99840.41;;;14.91;57.37
54666;BME280;40566;50.006;36.180;2023-04-23T07:07:51;99845.00;;;15.04;55.73
54666;BME280;40566;50.006;36.180;2023-04-23T07:12:52;99846.84;;;15.21;55.51
54666;BME280;40566;50.006;36.180;2023-04-23T07:17:52;99847.41;;;15.28;55.05
54666;BME280;40566;50.006;36.180;2023-04-23T07:22:53;99845.56;;;15.30;54.12
54666;BME280;40566;50.006;36.180;2023-04-23T07:27:54;99842.19;;;15.28;53.94
54666;BME280;40566;50.006;36.180;2023-04-23T07:32:54;99847.00;;;15.37;53.69
54666;BME280;40566;50.006;36.180;2023-04-23T07:37:55;99848.59;;;15.59;53.32
54666;BME280;40566;50.006;36.180;2023-04-23T07:42:57;99848.53;;;15.79;52.73
54666;BME280;40566;50.006;36.180;2023-04-23T07:47:58;99841.69;;;15.96;52.05
54666;BME280;40566;50.006;36.180;2023-04-23T07:53:01;99836.63;;;16.10;51.82
54666;BME280;40566;50.006;36.180;2023-04-23T07:58:01;99845.31;;;16.28;51.91
54666;BME280;40566;50.006;36.180;2023-04-23T08:03:02;99847.09;;;16.45;51.42
54666;BME280;40566;50.006;36.180;2023-04-23T08:08:02;99842.13;;;16.56;50.51
54666;BME280;40566;50.006;36.180;2023-04-23T08:13:03;99854.16;;;16.76;50.08
54666;BME280;40566;50.006;36.180;2023-04-23T08:18:04;99848.28;;;17.06;49.52
54666;BME280;40566;50.006;36.180;2023-04-23T08:23:05;99849.91;;;17.09;49.21
54666;BME280;40566;50.006;36.180;2023-04-23T08:28:06;99847.31;;;17.09;48.57
54666;BME280;40566;50.006;36.180;2023-04-23T08:33:06;99836.88;;;17.40;47.48
54666;BME280;40566;50.006;36.180;2023-04-23T08:38:07;99837.38;;;17.95;46.85
54666;BME280;40566;50.006;36.180;2023-04-23T08:43:49;99823.88;;;18.47;45.99
54666;BME280;40566;50.006;36.180;2023-04-23T08:48:51;99817.94;;;19.02;45.11
54666;BME280;40566;50.006;36.180;2023-04-23T08:53:55;99820.63;;;19.15;44.70
54666;BME280;40566;50.006;36.180;2023-04-23T08:58:57;99820.72;;;19.28;44.87
54666;BME280;40566;50.006;36.180;2023-04-23T09:03:59;99809.44;;;19.40;43.76
54666;BME280;40566;50.006;36.180;2023-04-23T09:09:00;99810.50;;;19.38;43.92
54666;BME280;40566;50.006;36.180;2023-04-23T09:14:03;99804.03;;;19.44;44.13
54666;BME280;40566;50.006;36.180;2023-04-23T09:19:04;99806.19;;;19.64;44.42
54666;BME280;40566;50.006;36.180;2023-04-23T09:24:05;99805.03;;;19.41;44.19
54666;BME280;40566;50.006;36.180;2023-04-23T09:29:12;99791.09;;;19.68;43.63
54666;BME280;40566;50.006;36.180;2023-04-23T09:34:16;99790.81;;;19.45;44.84
54666;BME280;40566;50.006;36.180;2023-04-23T09:39:20;99788.25;;;18.73;44.88
54666;BME280;40566;50.006;36.180;2023-04-23T09:44:23;99799.16;;;18.07;45.26
54666;BME280;40566;50.006;36.180;2023-04-23T09:49:23;99815.19;;;17.38;45.26
54666;BME280;40566;50.006;36.180;2023-04-23T09:54:24;99813.47;;;16.72;45.30
54666;BME280;40566;50.006;36.180;2023-04-23T09:59:29;99804.38;;;16.29;45.89
54666;BME280;40566;50.006;36.180;2023-04-23T10:04:31;99809.81;;;16.06;45.18
54666;BME280;40566;50.006;36.180;2023-04-23T10:09:32;99815.91;;;15.90;45.12
54666;BME280;40566;50.006;36.180;2023-04-23T10:14:32;99805.25;;;15.75;45.36
54666;BME280;40566;50.006;36.180;2023-04-23T10:19:34;99793.31;;;15.70;44.90
54666;BME280;40566;50.006;36.180;2023-04-23T10:24:39;99799.28;;;15.73;44.90
54666;BME280;40566;50.006;36.180;2023-04-23T10:29:42;99798.91;;;15.81;44.03
54666;BME280;40566;50.006;36.180;2023-04-23T10:34:44;99799.00;;;15.97;43.28
54666;BME280;40566;50.006;36.180;2023-04-23T10:39:49;99796.53;;;16.29;42.66
54666;BME280;40566;50.006;36.180;2023-04-23T10:44:57;99793.31;;;16.74;41.00
54666;BME280;40566;50.006;36.180;2023-04-23T10:50:17;99785.94;;;17.48;39.55
54666;BME280;40566;50.006;36.180;2023-04-23T10:55:20;99783.72;;;17.72;39.43
54666;BME280;40566;50.006;36.180;2023-04-23T11:00:22;99790.69;;;18.03;39.04
54666;BME280;40566;50.006;36.180;2023-04-23T11:05:22;99794.75;;;18.23;38.85
54666;BME280;40566;50.006;36.180;2023-04-23T11:10:25;99799.69;;;18.87;38.19
54666;BME280;40566;50.006;36.180;2023-04-23T11:15:25;99799.25;;;20.43;36.47
54666;BME280;40566;50.006;36.180;2023-04-23T11:20:26;99793.97;;;22.63;33.41
54666;BME280;40566;50.006;36.180;2023-04-23T11:25:27;99800.16;;;21.45;35.46
54666;BME280;40566;50.006;36.180;2023-04-23T11:30:29;99793.91;;;20.57;36.70
54666;BME280;40566;50.006;36.180;2023-04-23T11:35:29;99797.75;;;20.13;37.61
54666;BME280;40566;50.006;36.180;2023-04-23T11:40:38;99803.41;;;19.11;38.43
54666;BME280;40566;50.006;36.180;2023-04-23T11:45:39;99798.88;;;18.27;39.22
54666;BME280;40566;50.006;36.180;2023-04-23T11:50:40;99798.97;;;17.79;39.90
54666;BME280;40566;50.006;36.180;2023-04-23T11:55:41;99794.53;;;17.66;39.69
54666;BME280;40566;50.006;36.180;2023-04-23T12:00:43;99796.03;;;17.86;38.91
54666;BME280;40566;50.006;36.180;2023-04-23T12:05:44;99787.13;;;18.04;38.09
54666;BME280;40566;50.006;36.180;2023-04-23T12:10:48;99785.38;;;18.19;37.35
54666;BME280;40566;50.006;36.180;2023-04-23T12:15:52;99788.44;;;18.99;36.88
54666;BME280;40566;50.006;36.180;2023-04-23T12:21:04;99782.53;;;19.78;36.24
54666;BME280;40566;50.006;36.180;2023-04-23T12:26:13;99780.88;;;19.77;37.28
54666;BME280;40566;50.006;36.180;2023-04-23T12:31:22;99779.75;;;18.98;38.84
54666;BME280;40566;50.006;36.180;2023-04-23T12:36:26;99788.88;;;18.34;40.06
54666;BME280;40566;50.006;36.180;2023-04-23T12:41:26;99790.25;;;17.95;41.11
54666;BME280;40566;50.006;36.180;2023-04-23T12:46:27;99795.41;;;17.80;41.19
54666;BME280;40566;50.006;36.180;2023-04-23T12:51:28;99785.69;;;17.82;40.91
54666;BME280;40566;50.006;36.180;2023-04-23T12:56:28;99795.00;;;17.88;40.86
54666;BME280;40566;50.006;36.180;2023-04-23T13:01:29;99789.72;;;18.04;40.50
54666;BME280;40566;50.006;36.180;2023-04-23T13:06:30;99790.88;;;18.14;40.75
54666;BME280;40566;50.006;36.180;2023-04-23T13:11:31;99782.03;;;18.17;40.26
54666;BME280;40566;50.006;36.180;2023-04-23T13:16:32;99783.88;;;18.15;40.72
54666;BME280;40566;50.006;36.180;2023-04-23T13:21:33;99782.88;;;18.32;40.47
54666;BME280;40566;50.006;36.180;2023-04-23T13:26:33;99786.38;;;18.47;40.50
54666;BME280;40566;50.006;36.180;2023-04-23T13:31:34;99785.72;;;18.43;40.89
54666;BME280;40566;50.006;36.180;2023-04-23T13:36:36;99767.44;;;18.27;39.88
54666;BME280;40566;50.006;36.180;2023-04-23T13:41:36;99782.16;;;17.99;40.21
54666;BME280;40566;50.006;36.180;2023-04-23T13:46:37;99782.41;;;17.79;40.46
54666;BME280;40566;50.006;36.180;2023-04-23T13:51:39;99776.09;;;17.67;40.89
54666;BME280;40566;50.006;36.180;2023-04-23T13:56:40;99782.84;;;17.71;40.57
54666;BME280;40566;50.006;36.180;2023-04-23T14:01:40;99783.16;;;17.81;40.23
54666;BME280;40566;50.006;36.180;2023-04-23T14:06:41;99776.69;;;17.88;39.31
54666;BME280;40566;50.006;36.180;2023-04-23T14:11:42;99773.78;;;17.93;38.77
54666;BME280;40566;50.006;36.180;2023-04-23T14:16:42;99771.03;;;17.96;39.26
54666;BME280;40566;50.006;36.180;2023-04-23T14:21:44;99774.22;;;18.01;39.42
54666;BME280;40566;50.006;36.180;2023-04-23T14:26:46;99769.38;;;18.09;39.47
54666;BME280;40566;50.006;36.180;2023-04-23T14:31:48;99777.22;;;18.09;39.38
54666;BME280;40566;50.006;36.180;2023-04-23T14:36:49;99775.13;;;18.00;39.72
54666;BME280;40566;50.006;36.180;2023-04-23T14:41:52;99779.22;;;17.74;39.87
54666;BME280;40566;50.006;36.180;2023-04-23T14:46:52;99770.13;;;17.49;40.19
54666;BME280;40566;50.006;36.180;2023-04-23T14:51:53;99778.84;;;17.18;40.66
54666;BME280;40566;50.006;36.180;2023-04-23T14:56:54;99782.03;;;16.74;41.34
54666;BME280;40566;50.006;36.180;2023-04-23T15:01:55;99775.03;;;16.41;41.56
54666;BME280;40566;50.006;36.180;2023-04-23T15:06:56;99770.31;;;16.14;42.41
54666;BME280;40566;50.006;36.180;2023-04-23T15:11:58;99775.75;;;15.92;42.54
54666;BME280;40566;50.006;36.180;2023-04-23T15:17:03;99766.41;;;15.69;42.83
54666;BME280;40566;50.006;36.180;2023-04-23T15:22:04;99773.91;;;15.58;43.22
54666;BME280;40566;50.006;36.180;2023-04-23T15:27:04;99775.44;;;15.44;43.58
54666;BME280;40566;50.006;36.180;2023-04-23T15:32:07;99781.91;;;15.36;44.65
54666;BME280;40566;50.006;36.180;2023-04-23T15:37:09;99770.00;;;15.30;44.51
54666;BME280;40566;50.006;36.180;2023-04-23T15:42:09;99774.44;;;15.28;44.40
54666;BME280;40566;50.006;36.180;2023-04-23T15:47:10;99778.97;;;15.24;44.65
54666;BME280;40566;50.006;36.180;2023-04-23T15:52:11;99773.88;;;15.21;44.61
54666;BME280;40566;50.006;36.180;2023-04-23T15:57:11;99774.66;;;15.23;45.00
54666;BME280;40566;50.006;36.180;2023-04-23T16:02:12;99786.97;;;15.20;45.92
54666;BME280;40566;50.006;36.180;2023-04-23T16:07:13;99784.81;;;15.11;45.94
54666;BME280;40566;50.006;36.180;2023-04-23T16:12:13;99784.47;;;14.99;46.50
54666;BME280;40566;50.006;36.180;2023-04-23T16:17:14;99795.28;;;14.90;47.83
54666;BME280;40566;50.006;36.180;2023-04-23T16:22:14;99795.84;;;14.78;47.31
54666;BME280;40566;50.006;36.180;2023-04-23T16:27:16;99782.44;;;14.66;48.45
54666;BME280;40566;50.006;36.180;2023-04-23T16:32:17;99785.56;;;14.54;48.95
54666;BME280;40566;50.006;36.180;2023-04-23T16:37:18;99792.13;;;14.42;49.24
54666;BME280;40566;50.006;36.180;2023-04-23T16:42:18;99796.38;;;14.24;49.54
54666;BME280;40566;50.006;36.180;2023-04-23T16:47:19;99797.84;;;14.09;50.32
54666;BME280;40566;50.006;36.180;2023-04-23T16:52:20;99797.63;;;13.94;50.57
54666;BME280;40566;50.006;36.180;2023-04-23T16:57:20;99804.34;;;13.77;50.90
54666;BME280;40566;50.006;36.180;2023-04-23T17:02:21;99827.38;;;13.64;50.83
54666;BME280;40566;50.006;36.180;2023-04-23T17:07:22;99823.28;;;13.59;51.21
54666;BME280;40566;50.006;36.180;2023-04-23T17:12:22;99821.16;;;13.46;51.27
54666;BME280;40566;50.006;36.180;2023-04-23T17:17:23;99834.50;;;13.37;51.73
54666;BME280;40566;50.006;36.180;2023-04-23T17:22:24;99834.22;;;13.21;52.20
54666;BME280;40566;50.006;36.180;2023-04-23T17:27:25;99840.81;;;13.06;52.89
54666;BME280;40566;50.006;36.180;2023-04-23T17:32:25;99843.84;;;12.94;52.45
54666;BME280;40566;50.006;36.180;2023-04-23T17:37:26;99848.56;;;12.83;52.53
54666;BME280;40566;50.006;36.180;2023-04-23T17:42:26;99853.19;;;12.75;53.00
54666;BME280;40566;50.006;36.180;2023-04-23T17:47:27;99849.31;;;12.61;53.50
54666;BME280;40566;50.006;36.180;2023-04-23T17:52:28;99859.97;;;12.54;53.68
54666;BME280;40566;50.006;36.180;2023-04-23T17:57:28;99858.53;;;12.45;53.19
54666;BME280;40566;50.006;36.180;2023-04-23T18:02:30;99870.06;;;12.36;54.08
54666;BME280;40566;50.006;36.180;2023-04-23T18:07:30;99876.41;;;12.27;54.70
54666;BME280;40566;50.006;36.180;2023-04-23T18:12:31;99872.28;;;12.20;54.61
54666;BME280;40566;50.006;36.180;2023-04-23T18:17:32;99885.47;;;12.14;55.33
54666;BME280;40566;50.006;36.180;2023-04-23T18:22:34;99876.00;;;12.13;55.23
54666;BME280;40566;50.006;36.180;2023-04-23T18:27:36;99890.75;;;12.11;55.13
54666;BME280;40566;50.006;36.180;2023-04-23T18:32:41;99866.72;;;12.06;55.47
54666;BME280;40566;50.006;36.180;2023-04-23T18:37:58;99868.63;;;12.01;55.01
54666;BME280;40566;50.006;36.180;2023-04-23T18:43:01;99892.22;;;11.92;56.00
54666;BME280;40566;50.006;36.180;2023-04-23T18:53:17;99896.03;;;11.80;56.42
54666;BME280;40566;50.006;36.180;2023-04-23T18:58:18;99885.00;;;11.73;56.30
54666;BME280;40566;50.006;36.180;2023-04-23T19:03:19;99880.81;;;11.69;56.41
54666;BME280;40566;50.006;36.180;2023-04-23T19:08:20;99880.13;;;11.62;56.65
54666;BME280;40566;50.006;36.180;2023-04-23T19:13:22;99878.59;;;11.55;56.88
54666;BME280;40566;50.006;36.180;2023-04-23T19:18:22;99873.59;;;11.49;57.21
54666;BME280;40566;50.006;36.180;2023-04-23T19:23:23;99866.25;;;11.35;57.48
54666;BME280;40566;50.006;36.180;2023-04-23T19:28:24;99874.00;;;11.35;57.86
54666;BME280;40566;50.006;36.180;2023-04-23T19:33:24;99871.59;;;11.29;58.20
54666;BME280;40566;50.006;36.180;2023-04-23T19:38:25;99869.16;;;11.24;58.53
54666;BME280;40566;50.006;36.180;2023-04-23T19:43:26;99870.00;;;11.25;58.62
54666;BME280;40566;50.006;36.180;2023-04-23T19:48:27;99876.91;;;11.24;59.30
54666;BME280;40566;50.006;36.180;2023-04-23T19:53:27;99867.53;;;11.20;59.59
54666;BME280;40566;50.006;36.180;2023-04-23T19:58:28;99864.13;;;11.20;59.98
54666;BME280;40566;50.006;36.180;2023-04-23T20:03:29;99858.13;;;11.18;60.17
54666;BME280;40566;50.006;36.180;2023-04-23T20:08:29;99863.19;;;11.21;60.59
54666;BME280;40566;50.006;36.180;2023-04-23T20:13:41;99856.97;;;11.28;60.39
54666;BME280;40566;50.006;36.180;2023-04-23T20:18:42;99858.69;;;11.27;60.60
54666;BME280;40566;50.006;36.180;2023-04-23T20:23:42;99851.69;;;11.31;60.98
54666;BME280;40566;50.006;36.180;2023-04-23T20:28:43;99848.06;;;11.37;61.11
54666;BME280;40566;50.006;36.180;2023-04-23T20:33:45;99853.09;;;11.41;61.55
54666;BME280;40566;50.006;36.180;2023-04-23T20:38:46;99841.88;;;11.42;61.62
54666;BME280;40566;50.006;36.180;2023-04-23T20:43:46;99854.75;;;11.45;61.98
54666;BME280;40566;50.006;36.180;2023-04-23T20:48:49;99843.50;;;11.45;61.93
54666;BME280;40566;50.006;36.180;2023-04-23T20:53:54;99848.78;;;11.42;62.20
54666;BME280;40566;50.006;36.180;2023-04-23T20:58:56;99854.06;;;11.39;62.32
54666;BME280;40566;50.006;36.180;2023-04-23T21:04:00;99829.28;;;11.30;62.48
54666;BME280;40566;50.006;36.180;2023-04-23T21:09:01;99861.28;;;11.27;62.95
54666;BME280;40566;50.006;36.180;2023-04-23T21:14:01;99860.63;;;11.21;63.21
54666;BME280;40566;50.006;36.180;2023-04-23T21:19:03;99858.13;;;11.18;63.19
54666;BME280;40566;50.006;36.180;2023-04-23T21:24:04;99867.75;;;11.13;63.14
54666;BME280;40566;50.006;36.180;2023-04-23T21:29:05;99862.78;;;11.05;63.20
54666;BME280;40566;50.006;36.180;2023-04-23T21:34:07;99858.81;;;10.93;63.07
54666;BME280;40566;50.006;36.180;2023-04-23T21:39:08;99863.38;;;10.83;63.38
54666;BME280;40566;50.006;36.180;2023-04-23T21:44:09;99865.34;;;10.74;63.43
54666;BME280;40566;50.006;36.180;2023-04-23T21:49:10;99856.16;;;10.63;63.06
54666;BME280;40566;50.006;36.180;2023-04-23T21:54:11;99853.84;;;10.52;63.20
54666;BME280;40566;50.006;36.180;2023-04-23T21:59:12;99849.78;;;10.42;63.32
54666;BME280;40566;50.006;36.180;2023-04-23T22:04:13;99839.72;;;10.31;63.19
54666;BME280;40566;50.006;36.180;2023-04-23T22:09:13;99856.22;;;10.26;63.30
54666;BME280;40566;50.006;36.180;2023-04-23T22:14:15;99850.28;;;10.21;63.41
54666;BME280;40566;50.006;36.180;2023-04-23T22:19:16;99845.25;;;10.16;63.60
54666;BME280;40566;50.006;36.180;2023-04-23T22:24:18;99848.09;;;10.05;63.94
54666;BME280;40566;50.006;36.180;2023-04-23T22:29:18;99840.53;;;9.98;63.96
54666;BME280;40566;50.006;36.180;2023-04-23T22:34:19;99839.78;;;9.92;63.99
54666;BME280;40566;50.006;36.180;2023-04-23T22:39:20;99844.34;;;9.81;64.42
54666;BME280;40566;50.006;36.180;2023-04-23T22:44:20;99846.03;;;9.82;64.81
54666;BME280;40566;50.006;36.180;2023-04-23T22:49:21;99838.31;;;9.81;64.95
54666;BME280;40566;50.006;36.180;2023-04-23T22:54:22;99836.66;;;9.78;65.09
54666;BME280;40566;50.006;36.180;2023-04-23T22:59:23;99828.09;;;9.76;65.35
54666;BME280;40566;50.006;36.180;2023-04-23T23:04:25;99835.03;;;9.74;65.37
54666;BME280;40566;50.006;36.180;2023-04-23T23:09:25;99823.94;;;9.70;65.38
54666;BME280;40566;50.006;36.180;2023-04-23T23:14:26;99837.78;;;9.68;65.78
54666;BME280;40566;50.006;36.180;2023-04-23T23:19:28;99833.63;;;9.61;66.18
54666;BME280;40566;50.006;36.180;2023-04-23T23:24:30;99827.75;;;9.54;66.58
54666;BME280;40566;50.006;36.180;2023-04-23T23:29:31;99833.78;;;9.53;66.71
54666;BME280;40566;50.006;36.180;2023-04-23T23:34:32;99841.63;;;9.50;66.68
54666;BME280;40566;50.006;36.180;2023-04-23T23:39:32;99830.50;;;9.46;66.37
54666;BME280;40566;50.006;36.180;2023-04-23T23:44:33;99830.63;;;9.40;66.65
54666;BME280;40566;50.006;36.180;2023-04-23T23:49:33;99830.78;;;9.34;66.60
54666;BME280;40566;50.006;36.180;2023-04-23T23:54:34;99838.69;;;9.25;66.97
54666;BME280;40566;50.006;36.180;2023-04-23T23:59:35;99839.66;;;9.21;67.36
